createdAt,value
2019-03-27T06:01:33.928Z,6.70
2019-03-27T06:04:38.449Z,6.37
2019-03-27T06:07:42.900Z,7.10
2019-03-27T06:10:47.380Z,6.28
2019-03-27T06:13:51.838Z,6.28
2019-03-27T06:16:56.318Z,6.60
2019-03-27T06:20:00.773Z,6.28
2019-03-27T06:23:05.264Z,6.12
2019-03-27T06:26:09.729Z,6.72
2019-03-27T06:29:15.980Z,6.30
2019-03-27T06:32:20.549Z,6.58
2019-03-27T06:35:25.030Z,6.65
2019-03-27T06:38:29.493Z,6.70
2019-03-27T06:41:33.989Z,6.97
2019-03-27T06:44:38.448Z,7.50
2019-03-27T06:47:42.933Z,6.70
2019-03-27T06:50:47.388Z,6.50
2019-03-27T06:53:51.880Z,7.15
2019-03-27T06:56:56.335Z,6.70
2019-03-27T07:00:00.839Z,6.47
2019-03-27T07:03:06.632Z,6.20
2019-03-27T07:06:11.117Z,6.47
2019-03-27T07:09:15.567Z,6.10
2019-03-27T07:12:21.424Z,7.12
2019-03-27T07:15:26.208Z,6.45
2019-03-27T07:18:40.152Z,7.55
2019-03-27T07:21:36.794Z,6.70
2019-03-27T07:24:41.279Z,5.80
2019-03-27T07:27:46.805Z,5.83
2019-03-27T07:30:51.300Z,6.62
2019-03-27T07:33:55.833Z,6.15
2019-03-27T07:37:00.319Z,5.40
2019-03-27T07:40:07.116Z,6.30
2019-03-27T07:46:15.202Z,5.25
2019-03-27T07:49:19.683Z,4.90
2019-03-27T07:52:24.137Z,4.30
2019-03-27T07:55:28.635Z,4.22
2019-03-27T07:58:33.090Z,3.65
2019-03-27T08:01:37.653Z,4.00
2019-03-27T08:04:42.109Z,4.05
2019-03-27T08:07:46.586Z,3.90
2019-03-27T08:10:51.036Z,3.33
2019-03-27T08:13:55.596Z,3.05
2019-03-27T08:17:00.050Z,3.12
2019-03-27T08:20:07.257Z,3.00
2019-03-27T08:23:11.720Z,3.12
2019-03-27T08:26:16.201Z,2.55
2019-03-27T08:29:20.649Z,3.10
2019-03-27T08:32:25.137Z,2.65
2019-03-27T08:35:29.598Z,2.90
2019-03-27T08:38:34.076Z,2.40
2019-03-27T08:41:38.669Z,2.87
2019-03-27T08:44:43.089Z,2.92
2019-03-27T08:47:47.544Z,3.15
2019-03-27T08:50:52.017Z,3.02
2019-03-27T08:53:56.474Z,3.20
2019-03-27T08:57:00.964Z,4.58
2019-03-27T09:00:10.790Z,3.42
2019-03-27T09:03:15.711Z,3.60
2019-03-27T09:06:33.069Z,4.35
2019-03-27T09:09:26.560Z,3.80
2019-03-27T09:12:30.978Z,3.35
2019-03-27T09:15:35.488Z,4.15
2019-03-27T09:18:39.945Z,3.70
2019-03-27T09:21:44.411Z,4.42
2019-03-27T09:24:48.891Z,4.53
2019-03-27T09:27:53.351Z,4.50
2019-03-27T09:30:57.800Z,4.35
2019-03-27T09:34:02.281Z,3.80
2019-03-27T09:37:06.740Z,4.55
2019-03-27T09:40:11.681Z,4.12
2019-03-27T09:43:16.132Z,4.35
2019-03-27T09:46:20.629Z,4.15
2019-03-27T09:49:25.083Z,4.37
2019-03-27T09:52:29.625Z,3.87
2019-03-27T09:55:34.084Z,3.50
2019-03-27T09:58:38.554Z,4.20
2019-03-27T10:01:43.023Z,3.42
2019-03-27T10:04:47.535Z,3.33
2019-03-27T10:07:51.995Z,3.52
2019-03-27T10:10:56.501Z,3.83
2019-03-27T10:14:00.974Z,4.25
2019-03-27T10:17:05.530Z,4.22
2019-03-27T10:20:10.064Z,4.22
2019-03-27T10:23:14.550Z,4.00
2019-03-27T10:26:19.009Z,4.05
2019-03-27T10:29:23.599Z,4.12
2019-03-27T10:32:28.089Z,4.62
2019-03-27T10:35:32.558Z,4.42
2019-03-27T10:38:37.046Z,4.78
2019-03-27T10:41:41.528Z,4.22
2019-03-27T10:44:46.037Z,4.40
2019-03-27T10:47:50.513Z,4.37
2019-03-27T10:50:54.997Z,5.17
2019-03-27T10:53:59.631Z,5.33
2019-03-27T10:57:04.062Z,5.08
2019-03-27T11:00:10.638Z,4.62
2019-03-27T11:03:15.292Z,4.62
2019-03-27T11:06:19.800Z,5.40
2019-03-27T11:09:24.267Z,5.05
2019-03-27T11:12:28.837Z,3.85
2019-03-27T11:15:33.296Z,4.30
2019-03-27T11:18:37.781Z,4.15
2019-03-27T11:21:42.240Z,4.85
2019-03-27T11:24:46.720Z,4.58
2019-03-27T11:27:51.181Z,4.37
2019-03-27T11:30:55.675Z,3.87
2019-03-27T11:34:01.199Z,3.60
2019-03-27T11:37:05.684Z,3.52
2019-03-27T11:40:10.489Z,3.45
2019-03-27T11:43:15.026Z,2.92
2019-03-27T11:46:19.472Z,2.90
2019-03-27T11:49:24.052Z,3.33
2019-03-27T11:52:29.916Z,3.27
2019-03-27T11:55:35.614Z,2.90
2019-03-27T11:58:40.067Z,2.98
2019-03-27T12:01:44.657Z,2.85
2019-03-27T12:04:49.108Z,3.12
2019-03-27T12:07:53.598Z,3.33
2019-03-27T12:10:58.056Z,3.42
2019-03-27T12:14:02.575Z,3.77
2019-03-27T12:17:07.088Z,3.70
2019-03-27T12:20:11.858Z,4.45
2019-03-27T12:23:16.380Z,4.40
2019-03-27T12:26:20.912Z,4.67
2019-03-27T12:29:25.398Z,4.22
2019-03-27T12:32:29.852Z,4.00
2019-03-27T12:35:34.363Z,4.03
2019-03-27T12:38:38.861Z,3.80
2019-03-27T12:41:43.322Z,5.05
2019-03-27T12:44:47.809Z,4.58
2019-03-27T12:47:52.327Z,4.42
2019-03-27T12:50:56.769Z,4.45
2019-03-27T12:54:01.405Z,3.95
2019-03-27T12:57:05.886Z,3.77
2019-03-27T13:00:11.404Z,3.45
2019-03-27T13:03:15.981Z,4.40
2019-03-27T13:06:20.438Z,4.25
2019-03-27T13:09:24.991Z,3.92
2019-03-27T13:12:29.550Z,4.40
2019-03-27T13:15:34.043Z,4.37
2019-03-27T13:18:38.601Z,4.17
2019-03-27T13:21:43.204Z,5.15
2019-03-27T13:24:47.837Z,4.03
2019-03-27T13:27:52.389Z,4.03
2019-03-27T13:30:57.109Z,4.35
2019-03-27T13:34:01.949Z,3.02
2019-03-27T13:37:06.876Z,2.62
2019-03-27T13:40:12.176Z,2.65
2019-03-27T13:43:16.633Z,2.60
2019-03-27T13:46:21.123Z,3.05
2019-03-27T13:49:25.585Z,2.67
2019-03-27T13:52:30.075Z,2.20
2019-03-27T13:55:35.269Z,2.37
2019-03-27T13:58:39.924Z,2.60
2019-03-27T14:01:44.459Z,2.55
2019-03-27T14:04:49.237Z,2.40
2019-03-27T14:07:53.968Z,2.20
2019-03-27T14:10:58.416Z,2.50
2019-03-27T14:14:11.083Z,2.52
2019-03-27T14:17:09.726Z,2.65
2019-03-27T14:20:15.019Z,1.92
2019-03-27T14:23:19.514Z,2.00
2019-03-27T14:26:24.049Z,1.90
2019-03-27T14:29:29.022Z,1.75
2019-03-27T14:32:33.750Z,2.00
2019-03-27T14:35:38.685Z,1.95
2019-03-27T14:38:44.542Z,2.00
2019-03-27T14:41:49.149Z,2.00
2019-03-27T14:44:53.735Z,2.22
2019-03-27T14:47:58.528Z,2.40
2019-03-27T14:51:03.214Z,2.22
2019-03-27T14:54:07.702Z,2.47
2019-03-27T14:57:12.388Z,2.60
2019-03-27T15:00:17.392Z,3.37
2019-03-27T15:03:22.480Z,3.30
2019-03-27T15:06:27.726Z,3.00
2019-03-27T15:09:32.861Z,3.10
2019-03-27T15:12:38.131Z,3.17
2019-03-27T15:15:43.760Z,2.72
2019-03-27T15:18:52.370Z,2.60
2019-03-27T15:21:56.089Z,3.27
2019-03-27T15:25:01.149Z,3.08
2019-03-27T15:28:06.362Z,3.27
2019-03-27T15:31:20.445Z,3.25
2019-03-27T15:34:21.248Z,3.42
2019-03-27T15:40:41.096Z,3.33
2019-03-27T15:43:47.723Z,3.37
2019-03-27T15:47:00.547Z,3.90
2019-03-27T15:50:09.470Z,4.78
2019-03-27T15:53:14.710Z,3.95
2019-03-27T15:56:19.959Z,4.10
2019-03-27T15:59:25.201Z,4.08
2019-03-27T16:05:35.986Z,4.40
2019-03-27T16:11:48.007Z,5.10
2019-03-27T16:14:53.758Z,5.00
2019-03-27T16:17:58.909Z,5.60
2019-03-27T16:21:04.243Z,5.33
2019-03-27T16:24:09.280Z,5.67
2019-03-27T16:27:15.236Z,5.75
2019-03-27T16:30:20.623Z,6.08
2019-03-27T16:33:28.267Z,5.87
2019-03-27T16:36:34.494Z,6.10
2019-03-27T16:39:40.914Z,5.40
2019-03-27T16:42:46.059Z,6.35
2019-03-27T16:45:52.524Z,6.53
2019-03-27T16:49:01.201Z,5.92
2019-03-27T16:52:07.722Z,6.17
2019-03-27T16:55:12.999Z,6.83
2019-03-27T16:58:18.950Z,6.83
2019-03-27T17:01:24.056Z,8.03
2019-03-27T17:04:30.428Z,6.85
2019-03-27T17:07:35.564Z,6.47
2019-03-27T17:10:41.322Z,7.25
2019-03-27T17:13:46.462Z,6.67
2019-03-27T17:16:52.111Z,6.50
2019-03-27T17:19:58.788Z,5.78
2019-03-27T17:23:17.441Z,6.42
2019-03-27T17:26:11.623Z,6.00
2019-03-27T17:29:19.628Z,6.12
2019-03-27T17:32:24.920Z,6.15
2019-03-27T17:35:31.254Z,5.22
2019-03-27T17:38:36.376Z,6.28
2019-03-27T17:41:44.386Z,6.95
2019-03-27T17:44:53.267Z,5.45
2019-03-27T17:48:01.570Z,5.87
2019-03-27T17:54:20.415Z,6.22
2019-03-27T17:57:19.707Z,5.83
2019-03-27T18:00:44.650Z,5.50
2019-03-27T18:03:50.405Z,5.62
2019-03-27T18:06:55.566Z,6.47
2019-03-27T18:10:00.945Z,6.03
2019-03-27T18:16:17.171Z,5.45
2019-03-27T18:19:24.207Z,5.62
2019-03-27T18:22:31.956Z,6.03
2019-03-27T18:28:44.688Z,5.58
2019-03-27T18:34:55.272Z,5.83
2019-03-27T18:38:00.509Z,6.05
2019-03-27T18:41:07.082Z,6.45
2019-03-27T18:44:15.100Z,5.62
2019-03-27T18:47:21.188Z,6.33
2019-03-27T18:50:27.659Z,6.55
2019-03-27T18:53:33.066Z,6.25
2019-03-27T18:56:38.926Z,6.62
2019-03-27T18:59:44.269Z,6.17
2019-03-27T19:02:49.815Z,6.72
2019-03-27T19:05:55.162Z,6.83
2019-03-27T19:09:01.379Z,6.03
2019-03-27T19:12:12.083Z,6.72
2019-03-27T19:15:17.336Z,6.55
2019-03-27T19:18:25.549Z,6.70
2019-03-27T19:21:33.146Z,8.15
2019-03-27T19:24:38.388Z,8.08
2019-03-27T19:27:43.628Z,7.55
2019-03-27T19:30:51.594Z,7.58
2019-03-27T19:34:08.040Z,7.62
2019-03-27T19:37:13.382Z,8.28
2019-03-27T19:40:22.190Z,7.87
2019-03-27T19:45:15.072Z,8.60
2019-03-27T19:48:20.314Z,8.45
2019-03-27T19:51:27.131Z,8.48
2019-03-27T19:54:34.834Z,8.55
2019-03-27T19:57:40.032Z,8.28
2019-03-27T20:00:50.421Z,8.95
2019-03-27T20:03:56.356Z,8.95
2019-03-27T20:07:01.595Z,9.23
2019-03-27T20:10:07.859Z,9.28
2019-03-27T20:13:14.536Z,8.90
2019-03-27T20:19:25.568Z,9.35
2019-03-27T20:22:30.834Z,10.30
2019-03-27T20:25:35.920Z,10.43
2019-03-27T20:28:41.152Z,10.45
2019-03-27T20:31:48.092Z,11.28
2019-03-27T20:34:55.325Z,10.18
2019-03-27T20:38:03.330Z,10.35
2019-03-27T20:41:08.707Z,10.43
2019-03-27T20:44:14.327Z,10.93
2019-03-27T20:50:27.055Z,10.50
2019-03-27T20:53:32.611Z,10.60
2019-03-27T20:56:38.363Z,11.65
2019-03-27T20:59:43.705Z,11.57
2019-03-27T21:02:48.952Z,12.60
2019-03-27T21:05:55.581Z,11.95
2019-03-27T21:09:00.762Z,12.43
2019-03-27T21:12:08.669Z,11.50
2019-03-27T21:15:13.909Z,12.13
2019-03-27T21:18:20.586Z,11.55
2019-03-27T21:24:30.044Z,10.55
2019-03-27T21:27:35.318Z,11.68
2019-03-27T21:30:41.961Z,12.90
2019-03-27T21:33:47.101Z,12.23
2019-03-27T21:36:53.880Z,12.20
2019-03-27T21:43:03.237Z,12.88
2019-03-27T21:46:09.809Z,11.85
2019-03-27T21:49:15.052Z,12.23
2019-03-27T21:52:21.217Z,12.58
2019-03-27T21:55:26.354Z,12.68
2019-03-27T21:58:31.415Z,13.05
2019-03-27T22:01:36.534Z,12.28
2019-03-27T22:04:41.669Z,13.08
2019-03-27T22:07:46.914Z,13.70
2019-03-27T22:10:51.945Z,13.28
2019-03-27T22:13:57.092Z,12.95
2019-03-27T22:17:02.021Z,13.15
2019-03-27T22:20:08.083Z,13.25
2019-03-27T22:23:13.005Z,11.88
2019-03-27T22:26:18.051Z,12.58
2019-03-27T22:29:23.089Z,11.70
